Time;durP1;ratioP1;P1;durP2;ratioP2;P2;SDS_P1;SDS_P2;PMS_P1;PMS_P2;Temp;Humidity;BMP_temperature;BMP_pressure;BME280_temperature;BME280_humidity;BME280_pressure;Samples;Min_cycle;Max_cycle;Signal;HPM_P1;HPM_P2
2022/09/06 00:00:23;;;;;;;5.03;0.77;;;;;;;15.73;100.00;101420.38;5088558;28;20028;-76
2022/09/06 00:02:49;;;;;;;1.45;0.73;;;;;;;15.65;100.00;101425.78;5088337;28;20031;-76
2022/09/06 00:05:14;;;;;;;3.10;1.30;;;;;;;15.66;100.00;101457.06;5089195;28;20028;-76
2022/09/06 00:07:40;;;;;;;1.93;0.80;;;;;;;15.60;100.00;101456.75;5088198;28;20467;-77
2022/09/06 00:10:07;;;;;;;1.70;0.75;;;;;;;15.62;100.00;101480.81;5088387;28;20024;-77
2022/09/06 00:12:33;;;;;;;3.47;0.85;;;;;;;15.58;100.00;101482.19;5087964;28;20114;-76
2022/09/06 00:14:58;;;;;;;1.55;0.70;;;;;;;15.52;100.00;101494.50;5087551;28;20087;-76
2022/09/06 00:17:24;;;;;;;2.03;0.63;;;;;;;15.48;100.00;101498.56;5070552;28;20055;-74
2022/09/06 00:19:49;;;;;;;3.47;1.13;;;;;;;15.45;100.00;101487.28;5087162;28;20024;-76
2022/09/06 00:22:15;;;;;;;2.87;0.93;;;;;;;15.49;100.00;101499.38;5085366;28;20024;-76
2022/09/06 00:24:40;;;;;;;2.60;0.80;;;;;;;15.43;100.00;101500.09;5087703;28;20452;-76
2022/09/06 00:27:07;;;;;;;2.00;0.70;;;;;;;15.38;100.00;101509.53;5087659;28;20035;-77
2022/09/06 00:29:33;;;;;;;2.88;0.85;;;;;;;15.45;100.00;101536.56;5087149;28;20024;-77
2022/09/06 00:31:59;;;;;;;2.13;0.80;;;;;;;15.43;100.00;101545.81;5087181;28;20059;-76
2022/09/06 00:34:25;;;;;;;1.63;0.90;;;;;;;15.36;100.00;101510.72;5087061;28;20111;-76
2022/09/06 00:36:50;;;;;;;4.20;0.85;;;;;;;15.41;100.00;101519.13;5087092;28;20031;-76
2022/09/06 00:39:16;;;;;;;1.70;0.73;;;;;;;15.38;100.00;101490.72;5088226;28;20028;-76
2022/09/06 00:41:41;;;;;;;3.07;0.70;;;;;;;15.32;100.00;101491.41;5088284;28;20059;-76
2022/09/06 00:44:07;;;;;;;2.23;0.80;;;;;;;15.39;100.00;101489.69;5070153;28;20118;-75
2022/09/06 00:46:32;;;;;;;2.93;0.77;;;;;;;15.40;100.00;101471.69;5087008;28;20032;-75
2022/09/06 00:49:04;;;;;;;1.80;0.75;;;;;;;15.33;100.00;101451.88;5088274;28;20400;-75
2022/09/06 00:51:31;;;;;;;2.83;0.80;;;;;;;15.32;100.00;101461.81;5081465;28;20544;-75
2022/09/06 00:53:57;;;;;;;1.20;0.80;;;;;;;15.36;100.00;101459.63;5069970;28;20027;-76
2022/09/06 00:56:23;;;;;;;;;;;;;;;15.36;100.00;101456.94;5086953;28;20031;-76
2022/09/06 00:58:49;;;;;;;;;;;;;;;15.29;100.00;101472.94;5087137;28;20246;-77
2022/09/06 01:01:14;;;;;;;;;;;;;;;15.26;100.00;101450.91;5086094;28;19927;-76
2022/09/06 01:03:40;;;;;;;3.77;0.60;;;;;;;15.18;100.00;101428.41;5086984;28;19908;-76
2022/09/06 01:06:16;;;;;;;2.63;1.20;;;;;;;15.21;100.00;101427.22;5087584;28;20054;-76
2022/09/06 01:08:52;;;;;;;2.20;0.80;;;;;;;15.25;100.00;101447.38;5087481;28;20039;-76
2022/09/06 01:11:41;;;;;;;5.65;1.27;;;;;;;15.18;100.00;101452.63;5077456;28;20036;-75
2022/09/06 01:14:23;;;;;;;4.88;0.90;;;;;;;15.17;100.00;101458.16;5086309;28;20031;-75
2022/09/06 01:17:07;;;;;;;5.95;0.90;;;;;;;15.19;100.00;101424.72;5086505;28;20032;-75
2022/09/06 01:19:35;;;;;;;2.67;1.00;;;;;;;15.18;100.00;101398.84;5081404;28;20481;-76
2022/09/06 01:22:31;;;;;;;2.40;0.90;;;;;;;15.11;100.00;101395.19;5086259;28;20024;-75
2022/09/06 01:25:17;;;;;;;4.20;1.00;;;;;;;15.14;100.00;101416.34;5082911;28;20481;-76
2022/09/06 01:28:23;;;;;;;3.42;0.70;;;;;;;15.12;100.00;101422.91;5081980;28;20530;-75
2022/09/06 01:31:03;;;;;;;2.15;0.80;;;;;;;15.14;100.00;101410.13;5081973;28;20085;-76
2022/09/06 01:34:10;;;;;;;4.40;0.90;;;;;;;15.12;100.00;101390.63;5086131;28;20147;-76
2022/09/06 01:36:39;;;;;;;2.33;0.73;;;;;;;15.04;100.00;101404.97;5079978;28;20031;-75
2022/09/06 01:39:05;;;;;;;1.25;0.70;;;;;;;15.06;100.00;101405.63;5085593;28;20120;-75
2022/09/06 01:41:31;;;;;;;12.50;1.88;;;;;;;15.04;100.00;101399.59;5086809;28;20490;-76
2022/09/06 01:43:57;;;;;;;4.68;0.70;;;;;;;15.04;100.00;101372.69;5085725;28;20028;-76
2022/09/06 01:46:41;;;;;;;4.60;0.93;;;;;;;15.14;100.00;101367.91;5087012;28;20036;-76
2022/09/06 01:49:27;;;;;;;2.45;0.80;;;;;;;15.06;100.00;101348.31;5085180;28;20036;-76
2022/09/06 01:52:07;;;;;;;2.80;0.98;;;;;;;15.07;100.00;101353.50;5085462;28;20035;-76
2022/09/06 01:55:12;;;;;;;2.28;1.20;;;;;;;15.09;100.00;101364.94;5081012;28;20032;-75
2022/09/06 01:58:01;;;;;;;4.22;1.00;;;;;;;15.09;100.00;101370.31;5081494;28;20144;-76
2022/09/06 02:00:28;;;;;;;2.25;1.92;;;;;;;15.08;100.00;101330.16;5085088;28;20057;-75
2022/09/06 02:03:03;;;;;;;2.72;0.60;;;;;;;15.11;100.00;101338.69;5085505;28;20519;-76
2022/09/06 02:05:38;;;;;;;1.00;0.90;;;;;;;15.10;100.00;101309.28;5083686;28;20055;-75
2022/09/06 02:08:20;;;;;;;4.40;1.58;;;;;;;15.21;100.00;101281.97;5085469;28;20040;-76
2022/09/06 02:10:53;;;;;;;1.13;0.70;;;;;;;15.20;100.00;101250.75;5081933;28;20107;-75
2022/09/06 02:13:23;;;;;;;2.08;1.35;;;;;;;15.19;100.00;101198.81;5083672;28;20036;-75
2022/09/06 02:15:54;;;;;;;1.52;0.90;;;;;;;15.23;100.00;101190.38;5085374;28;20027;-77
2022/09/06 02:18:28;;;;;;;2.17;1.33;;;;;;;15.17;100.00;101140.81;5086428;28;20040;-75
2022/09/06 02:20:56;;;;;;;5.03;0.98;;;;;;;15.19;100.00;101171.06;5067753;28;20027;-75
2022/09/06 02:23:26;;;;;;;3.88;0.98;;;;;;;15.19;100.00;101145.00;5084725;28;20043;-76
2022/09/06 02:26:03;;;;;;;2.28;1.15;;;;;;;15.22;100.00;101116.06;5068048;28;20516;-77
2022/09/06 02:28:29;;;;;;;7.13;1.10;;;;;;;15.26;100.00;101079.72;5078809;28;20926;-78
2022/09/06 02:30:59;;;;;;;2.45;1.00;;;;;;;15.24;100.00;101047.63;5085761;28;20099;-76
2022/09/06 02:33:30;;;;;;;3.80;1.42;;;;;;;15.29;100.00;101047.06;5085035;28;20539;-75
2022/09/06 02:36:01;;;;;;;2.97;0.85;;;;;;;15.31;100.00;101045.88;5085052;28;20111;-75
2022/09/06 02:38:26;;;;;;;2.03;1.02;;;;;;;15.30;100.00;101064.88;5068208;28;20188;-75
2022/09/06 02:40:54;;;;;;;1.93;1.33;;;;;;;15.27;100.00;101046.44;5084491;28;20548;-76
2022/09/06 02:43:20;;;;;;;3.28;1.00;;;;;;;15.35;100.00;101032.88;5084838;28;20032;-76
2022/09/06 02:45:46;;;;;;;2.80;0.93;;;;;;;15.34;100.00;101007.00;5085180;28;20400;-75
2022/09/06 02:48:11;;;;;;;2.57;1.40;;;;;;;15.41;100.00;100997.97;5084727;28;20051;-75
2022/09/06 02:50:36;;;;;;;2.30;1.33;;;;;;;15.45;100.00;100966.13;5084386;28;20031;-76
2022/09/06 02:53:11;;;;;;;2.67;1.00;;;;;;;15.42;100.00;100942.31;5067596;28;20031;-76
2022/09/06 02:55:37;;;;;;;4.30;1.50;;;;;;;15.30;100.00;100962.66;5080259;28;20096;-76
2022/09/06 02:58:03;;;;;;;5.45;1.20;;;;;;;15.35;100.00;100962.94;5084058;28;20561;-76
2022/09/06 03:00:29;;;;;;;2.47;0.90;;;;;;;15.33;100.00;100968.47;5084821;28;20128;-76
2022/09/06 03:02:54;;;;;;;10.23;1.42;;;;;;;15.43;100.00;100957.44;5084499;28;20024;-75
2022/09/06 03:05:21;;;;;;;4.88;1.17;;;;;;;15.39;100.00;100900.47;5083793;28;20489;-76
2022/09/06 03:07:47;;;;;;;1.80;1.10;;;;;;;15.43;100.00;100925.16;5085017;28;20449;-76
2022/09/06 03:10:13;;;;;;;3.42;0.98;;;;;;;15.43;100.00;100946.69;5083099;28;20136;-76
2022/09/06 03:12:40;;;;;;;7.30;1.85;;;;;;;15.37;100.00;100936.66;5083659;28;20032;-76
2022/09/06 03:15:06;;;;;;;4.05;1.45;;;;;;;15.37;100.00;100950.94;5084478;28;20090;-76
2022/09/06 03:17:31;;;;;;;1.88;0.90;;;;;;;15.36;100.00;100913.50;5085598;28;20024;-76
2022/09/06 03:19:56;;;;;;;5.33;1.03;;;;;;;15.41;100.00;100948.72;5083817;28;20028;-76
2022/09/06 03:22:22;;;;;;;4.90;1.30;;;;;;;15.39;100.00;100930.06;5086100;28;20024;-77
2022/09/06 03:24:48;;;;;;;1.40;1.20;;;;;;;15.38;100.00;100868.38;5084416;28;20473;-76
2022/09/06 03:27:13;;;;;;;1.65;1.00;;;;;;;15.28;100.00;100830.22;5083975;28;20028;-76
2022/09/06 03:29:38;;;;;;;9.50;1.97;;;;;;;15.36;100.00;100898.19;5066938;28;20569;-76
2022/09/06 03:32:04;;;;;;;8.20;1.33;;;;;;;15.34;100.00;100861.75;5087646;28;20028;-75
2022/09/06 03:34:29;;;;;;;5.57;1.20;;;;;;;15.39;100.00;100859.31;5087925;28;20035;-76
2022/09/06 03:36:55;;;;;;;4.63;1.40;;;;;;;15.35;100.00;100853.47;5089456;28;20023;-76
2022/09/06 03:39:20;;;;;;;1.80;1.03;;;;;;;15.29;100.00;100834.56;5070777;28;20324;-76
2022/09/06 03:41:45;;;;;;;1.93;1.47;;;;;;;15.36;100.00;100857.00;5087221;28;20400;-76
2022/09/06 03:44:11;;;;;;;2.93;1.00;;;;;;;15.38;100.00;100799.28;5070687;28;20130;-76
2022/09/06 03:46:36;;;;;;;8.60;1.70;;;;;;;15.41;100.00;100815.03;5087598;28;20032;-76
2022/09/06 03:49:02;;;;;;;2.92;1.02;;;;;;;15.38;100.00;100806.50;5066930;28;20055;-76
2022/09/06 03:51:27;;;;;;;2.47;1.40;;;;;;;15.31;100.00;100819.06;5088141;28;20024;-76
2022/09/06 03:53:53;;;;;;;2.37;0.97;;;;;;;15.34;100.00;100856.34;5088600;28;20793;-76
2022/09/06 03:56:18;;;;;;;2.63;1.07;;;;;;;15.27;100.00;100807.88;5086984;28;20024;-76
2022/09/06 03:58:44;;;;;;;2.17;1.38;;;;;;;15.28;100.00;100849.03;5087452;28;20039;-77
2022/09/06 04:01:11;;;;;;;4.07;1.20;;;;;;;15.24;100.00;100791.28;5087896;28;20035;-76
2022/09/06 04:03:37;;;;;;;2.28;1.30;;;;;;;15.30;100.00;100814.72;5088082;28;20529;-77
2022/09/06 04:06:04;;;;;;;4.13;1.05;;;;;;;15.32;100.00;100785.78;5085154;28;20043;-76
2022/09/06 04:08:31;;;;;;;3.85;1.00;;;;;;;15.20;100.00;100786.28;5066642;28;20036;-76
2022/09/06 04:10:56;;;;;;;;;;;;;;;15.23;100.00;100805.75;5064907;28;20489;-76
2022/09/06 04:13:22;;;;;;;;;;;;;;;15.23;100.00;100829.97;5088472;28;19923;-75
2022/09/06 04:15:48;;;;;;;5.00;1.00;;;;;;;15.09;100.00;100823.59;5087014;28;19919;-76
2022/09/06 04:18:14;;;;;;;1.10;1.00;;;;;;;15.04;100.00;100851.06;5069706;28;20044;-76
2022/09/06 04:20:39;;;;;;;3.63;1.58;;;;;;;15.03;100.00;100884.38;5086688;28;20027;-77
2022/09/06 04:23:05;;;;;;;2.80;1.53;;;;;;;14.96;100.00;100891.47;5087932;28;20036;-76
2022/09/06 04:25:30;;;;;;;1.45;1.00;;;;;;;15.05;100.00;100850.03;5087731;28;20495;-76
2022/09/06 04:27:56;;;;;;;3.13;0.90;;;;;;;15.03;100.00;100854.78;5087748;28;20081;-75
2022/09/06 04:30:21;;;;;;;2.20;1.00;;;;;;;14.98;100.00;100823.09;5086051;28;20406;-76
2022/09/06 04:32:47;;;;;;;2.90;1.37;;;;;;;14.93;100.00;100840.78;5069860;28;20036;-76
2022/09/06 04:35:12;;;;;;;2.57;1.17;;;;;;;14.92;100.00;100841.81;5086232;28;20020;-76
2022/09/06 04:37:38;;;;;;;5.60;1.40;;;;;;;14.86;100.00;100856.00;5086750;28;20038;-77
2022/09/06 04:40:03;;;;;;;5.53;1.03;;;;;;;14.88;100.00;100860.16;5087181;28;20110;-77
2022/09/06 04:42:29;;;;;;;1.40;1.00;;;;;;;14.86;100.00;100815.69;5080068;28;20118;-76
2022/09/06 04:44:54;;;;;;;3.23;1.53;;;;;;;14.80;100.00;100795.78;5069530;28;20420;-76
2022/09/06 04:47:20;;;;;;;2.47;1.00;;;;;;;14.75;100.00;100780.22;5085461;28;20043;-77
2022/09/06 04:49:48;;;;;;;1.47;0.87;;;;;;;14.74;100.00;100791.97;5085882;28;20139;-77
2022/09/06 04:52:14;;;;;;;1.90;0.95;;;;;;;14.80;100.00;100762.69;5086083;28;20039;-76
2022/09/06 04:54:39;;;;;;;5.30;1.15;;;;;;;14.76;100.00;100741.56;5069007;28;20499;-77
2022/09/06 04:57:05;;;;;;;3.87;1.37;;;;;;;14.76;100.00;100735.38;5087096;28;20032;-77
2022/09/06 04:59:31;;;;;;;6.60;1.20;;;;;;;14.71;100.00;100729.75;5069011;28;20060;-76
2022/09/06 05:01:57;;;;;;;6.22;1.88;;;;;;;14.70;100.00;100736.97;5069225;28;20278;-77
2022/09/06 05:04:22;;;;;;;6.73;1.50;;;;;;;14.74;100.00;100759.72;5085769;28;20473;-76
2022/09/06 05:06:48;;;;;;;4.60;1.07;;;;;;;14.72;100.00;100734.91;5086212;28;20039;-76
2022/09/06 05:09:13;;;;;;;6.60;1.63;;;;;;;14.75;100.00;100737.22;5065334;28;20031;-77
2022/09/06 05:11:39;;;;;;;7.25;1.20;;;;;;;14.77;100.00;100737.88;5080727;28;20036;-75
2022/09/06 05:14:05;;;;;;;5.78;1.10;;;;;;;14.74;100.00;100748.16;5085835;28;20103;-77
2022/09/06 05:16:30;;;;;;;7.07;1.43;;;;;;;14.73;100.00;100759.94;5087173;28;20428;-77
2022/09/06 05:18:55;;;;;;;2.33;1.10;;;;;;;14.76;100.00;100773.00;5086782;28;20254;-76
2022/09/06 05:21:21;;;;;;;6.00;1.40;;;;;;;14.75;100.00;100822.41;5086262;28;20035;-75
2022/09/06 05:23:47;;;;;;;5.50;1.23;;;;;;;14.80;100.00;100875.56;5085216;28;20027;-76
2022/09/06 05:26:12;;;;;;;4.03;1.27;;;;;;;14.80;100.00;100902.44;5086511;28;20039;-76
2022/09/06 05:28:38;;;;;;;3.10;1.10;;;;;;;14.87;100.00;100924.88;5087066;28;20423;-76
2022/09/06 05:31:11;;;;;;;2.63;1.10;;;;;;;14.78;100.00;100916.91;5085649;28;20044;-77
2022/09/06 05:33:37;;;;;;;6.75;1.20;;;;;;;14.82;100.00;100930.81;5078664;28;20028;-76
2022/09/06 05:36:04;;;;;;;1.42;1.00;;;;;;;14.89;100.00;100942.50;5087155;28;20015;-76
2022/09/06 05:38:30;;;;;;;3.13;1.10;;;;;;;14.90;100.00;100924.50;5078876;28;20034;-76
2022/09/06 05:40:55;;;;;;;4.27;1.20;;;;;;;14.81;100.00;100886.13;5084815;28;20016;-76
2022/09/06 05:43:20;;;;;;;3.70;1.40;;;;;;;14.78;100.00;100867.69;5085422;28;20037;-76
2022/09/06 05:45:46;;;;;;;4.70;1.27;;;;;;;14.86;100.00;100971.59;5085297;28;20513;-76
2022/09/06 05:48:11;;;;;;;4.43;1.23;;;;;;;14.98;100.00;100940.53;5085764;28;20036;-76
2022/09/06 05:50:36;;;;;;;1.90;1.10;;;;;;;15.00;100.00;100927.72;5084675;28;20043;-76
2022/09/06 05:53:02;;;;;;;6.70;1.10;;;;;;;15.08;100.00;100927.66;5085591;28;20043;-76
2022/09/06 05:55:27;;;;;;;3.33;1.27;;;;;;;14.96;100.00;100924.59;5084965;28;20499;-76
2022/09/06 05:57:53;;;;;;;3.67;1.33;;;;;;;15.26;100.00;100972.13;5085611;28;20030;-76
2022/09/06 06:00:18;;;;;;;3.73;1.40;;;;;;;15.45;100.00;100993.03;5084914;28;20024;-75
2022/09/06 06:02:48;;;;;;;2.10;1.20;;;;;;;15.33;100.00;100897.72;5085470;28;20093;-77
2022/09/06 06:05:14;;;;;;;4.82;1.77;;;;;;;15.30;100.00;100925.84;5025835;22;20714;-87
2022/09/06 06:07:39;;;;;;;2.35;1.00;;;;;;;15.43;100.00;100914.41;4975780;28;20038;-85
2022/09/06 06:10:05;;;;;;;2.63;1.10;;;;;;;15.33;100.00;100838.53;4984288;28;20046;-86
2022/09/06 06:12:30;;;;;;;2.35;1.30;;;;;;;15.47;100.00;100941.75;4963081;28;20047;-84
2022/09/06 06:14:56;;;;;;;4.03;1.07;;;;;;;15.69;100.00;100977.59;4980808;28;20468;-86
2022/09/06 06:17:22;;;;;;;4.50;1.20;;;;;;;15.55;100.00;100885.13;4980015;28;20039;-86
2022/09/06 06:19:47;;;;;;;4.55;1.05;;;;;;;15.52;100.00;100976.97;4972846;28;20069;-87
2022/09/06 06:22:13;;;;;;;4.33;1.20;;;;;;;15.72;100.00;101017.63;4985732;28;20292;-87
2022/09/06 06:24:38;;;;;;;6.13;1.90;;;;;;;15.94;100.00;101019.31;4975742;28;20150;-87
2022/09/06 06:27:04;;;;;;;9.43;1.53;;;;;;;16.12;100.00;100989.25;4980911;28;20046;-86
2022/09/06 06:29:29;;;;;;;7.23;1.40;;;;;;;16.46;100.00;101093.59;4962914;28;20023;-85
2022/09/06 06:31:54;;;;;;;9.50;1.93;;;;;;;16.34;100.00;101024.25;4979950;28;20290;-84
2022/09/06 06:34:20;;;;;;;8.83;1.90;;;;;;;16.18;100.00;101004.66;4962661;28;20065;-84
2022/09/06 06:36:46;;;;;;;2.95;1.40;;;;;;;16.25;100.00;101031.66;4960211;28;20094;-84
2022/09/06 06:39:11;;;;;;;3.30;1.10;;;;;;;16.94;100.00;101143.41;4975941;28;20033;-85
2022/09/06 06:41:37;;;;;;;3.83;1.83;;;;;;;16.91;100.00;101006.28;4963133;28;20286;-85
2022/09/06 06:44:19;;;;;;;4.68;1.65;;;;;;;16.78;100.00;101015.06;4984499;28;20406;-86
2022/09/06 06:46:44;;;;;;;4.27;1.20;;;;;;;16.38;100.00;100932.06;4958350;28;20137;-85
2022/09/06 06:49:10;;;;;;;4.20;1.40;;;;;;;16.34;100.00;101046.66;4980852;28;20109;-87
2022/09/06 06:51:38;;;;;;;5.90;1.40;;;;;;;16.25;100.00;101148.31;4985563;28;20030;-85
2022/09/06 06:54:04;;;;;;;8.05;1.25;;;;;;;16.12;100.00;101096.97;4955006;28;20069;-83
2022/09/06 06:56:31;;;;;;;6.22;1.25;;;;;;;16.16;100.00;101129.78;4978586;28;20037;-85
2022/09/06 06:58:58;;;;;;;3.97;1.20;;;;;;;16.24;100.00;101197.00;4971010;28;20019;-85
2022/09/06 07:01:26;;;;;;;6.57;1.60;;;;;;;16.07;100.00;101104.81;4976141;28;20039;-83
2022/09/06 07:03:52;;;;;;;3.00;1.40;;;;;;;16.16;100.00;101170.19;4973944;28;20082;-85
2022/09/06 07:06:18;;;;;;;7.43;1.30;;;;;;;16.20;100.00;101198.38;4971554;28;20039;-83
2022/09/06 07:08:44;;;;;;;3.65;1.45;;;;;;;16.26;100.00;101157.22;4981666;28;20854;-83
2022/09/06 07:11:11;;;;;;;3.38;1.73;;;;;;;16.38;100.00;101166.47;4964624;28;20046;-81
2022/09/06 07:13:37;;;;;;;1.48;1.20;;;;;;;16.33;100.00;101098.03;4967251;28;20033;-82
2022/09/06 07:16:29;;;;;;;9.03;1.20;;;;;;;16.27;100.00;101105.00;4990843;28;20423;-84
2022/09/06 07:18:54;;;;;;;3.95;1.30;;;;;;;16.48;100.00;101149.16;4980846;28;20047;-82
2022/09/06 07:21:25;;;;;;;2.63;1.30;;;;;;;16.14;100.00;100975.59;4955501;28;20384;-83
2022/09/06 07:23:52;;;;;;;7.65;1.40;;;;;;;16.19;100.00;101048.56;4971903;28;20750;-86
2022/09/06 07:26:20;;;;;;;4.25;1.45;;;;;;;16.60;100.00;101089.19;4974021;28;20073;-84
2022/09/06 07:28:46;;;;;;;4.28;1.65;;;;;;;16.62;100.00;100951.50;4970305;28;20515;-84
2022/09/06 07:31:12;;;;;;;2.25;1.27;;;;;;;16.21;100.00;100780.66;4979092;28;20122;-84
2022/09/06 07:33:38;;;;;;;1.83;1.10;;;;;;;16.63;100.00;100883.09;4981784;28;20041;-84
2022/09/06 07:36:06;;;;;;;3.40;1.23;;;;;;;16.41;98.45;100756.53;4989627;28;20454;-83
2022/09/06 07:38:33;;;;;;;1.83;1.00;;;;;;;16.72;98.67;100843.34;4981336;28;20666;-81
2022/09/06 07:41:00;;;;;;;3.65;1.58;;;;;;;16.58;94.82;100669.94;4977620;28;20023;-82
2022/09/06 07:43:27;;;;;;;4.13;1.30;;;;;;;17.13;94.69;100845.16;4980845;28;20039;-84
2022/09/06 07:46:04;;;;;;;1.95;1.55;;;;;;;16.74;93.00;100671.41;4986039;28;20022;-81
2022/09/06 07:48:31;;;;;;;3.35;1.40;;;;;;;16.50;93.07;100605.44;4963205;28;20031;-82
2022/09/06 07:51:07;;;;;;;2.90;1.48;;;;;;;16.87;100.00;100982.38;4968456;28;20057;-82
2022/09/06 07:53:34;;;;;;;3.47;1.17;;;;;;;17.02;96.79;100890.56;4970436;28;20042;-82
2022/09/06 07:56:00;;;;;;;3.17;1.35;;;;;;;17.23;93.25;100832.97;4965640;28;20177;-84
2022/09/06 07:58:28;;;;;;;3.08;1.70;;;;;;;17.23;96.07;100926.53;4980929;28;20495;-84
2022/09/06 08:00:53;;;;;;;4.13;1.50;;;;;;;16.94;93.94;100773.94;4981034;28;20027;-85
2022/09/06 08:03:19;;;;;;;6.97;1.43;;;;;;;16.92;96.02;100865.00;4985904;28;20069;-84
2022/09/06 08:05:48;;;;;;;2.50;1.03;;;;;;;16.51;97.80;100830.78;4983097;28;20027;-82
2022/09/06 08:08:13;;;;;;;4.00;1.38;;;;;;;16.76;95.19;100804.97;4970824;28;20023;-83
2022/09/06 08:10:39;;;;;;;3.57;1.30;;;;;;;16.97;95.31;100866.06;4985359;28;20397;-83
2022/09/06 08:13:04;;;;;;;7.47;1.30;;;;;;;16.90;93.26;100761.91;4977417;28;20122;-82
2022/09/06 08:15:30;;;;;;;8.23;1.40;;;;;;;17.34;94.14;100922.44;4949120;28;20105;-85
2022/09/06 08:17:56;;;;;;;2.75;1.30;;;;;;;16.95;93.22;100779.16;4980142;28;20038;-83
2022/09/06 08:20:21;;;;;;;4.27;0.80;;;;;;;16.89;92.46;100731.41;4978300;28;20447;-83
2022/09/06 08:22:46;;;;;;;3.43;0.93;;;;;;;16.93;92.11;100751.56;4975199;28;20107;-82
2022/09/06 08:25:12;;;;;;;2.97;1.63;;;;;;;17.23;90.41;100764.66;4979989;28;20022;-83
2022/09/06 08:27:37;;;;;;;5.30;1.50;;;;;;;17.42;87.60;100711.72;4977156;28;20057;-81
2022/09/06 08:30:04;;;;;;;4.13;1.37;;;;;;;16.90;90.40;100672.91;4957487;28;20085;-82
2022/09/06 08:32:32;;;;;;;2.03;0.98;;;;;;;16.74;92.24;100717.22;4988929;28;20042;-83
2022/09/06 08:34:58;;;;;;;6.00;1.20;;;;;;;17.09;90.78;100758.41;4972751;28;20105;-84
2022/09/06 08:37:23;;;;;;;6.93;2.23;;;;;;;17.16;90.35;100775.47;4965951;28;20070;-82
2022/09/06 08:39:48;;;;;;;3.50;1.13;;;;;;;17.35;91.63;100897.94;4956067;28;20336;-83
2022/09/06 08:42:14;;;;;;;4.53;1.33;;;;;;;17.16;89.33;100715.25;4980462;28;20129;-80
2022/09/06 08:44:46;;;;;;;2.60;1.23;;;;;;;17.49;90.68;100894.25;4966989;28;20030;-82
2022/09/06 08:47:14;;;;;;;3.30;1.30;;;;;;;17.54;88.01;100780.25;4980257;28;20031;-82
2022/09/06 08:50:01;;;;;;;6.10;1.45;;;;;;;16.64;88.91;100534.34;4988197;28;20025;-83
2022/09/06 08:52:33;;;;;;;5.10;1.30;;;;;;;17.32;91.60;100886.72;4979894;28;20045;-84
2022/09/06 08:55:12;;;;;;;5.72;1.45;;;;;;;17.10;88.03;100679.16;4971979;28;20026;-85
2022/09/06 08:58:01;;;;;;;4.47;1.30;;;;;;;17.49;89.74;100879.94;4969372;28;20035;-85
2022/09/06 09:00:27;;;;;;;4.55;1.40;;;;;;;18.13;85.09;100863.13;4981369;28;20031;-86
2022/09/06 09:03:02;;;;;;;2.75;1.30;;;;;;;18.57;81.64;100809.41;4956378;28;20635;-85
2022/09/06 09:05:34;;;;;;;5.30;1.33;;;;;;;19.02;75.22;100557.81;4980721;28;20035;-86
2022/09/06 09:08:04;;;;;;;3.08;1.45;;;;;;;19.59;75.32;100747.19;4969037;28;20151;-86
2022/09/06 09:10:39;;;;;;;3.00;1.63;;;;;;;19.92;72.13;100594.34;4972810;28;20050;-86
2022/09/06 09:13:08;;;;;;;4.07;1.05;;;;;;;19.84;69.47;100386.91;4972416;28;20082;-86
2022/09/06 09:15:36;;;;;;;3.03;1.35;;;;;;;18.51;73.13;100307.44;4977163;28;20019;-86
2022/09/06 09:18:02;;;;;;;4.28;1.15;;;;;;;18.17;75.37;100400.69;4973871;28;20030;-86
2022/09/06 09:20:28;;;;;;;3.88;1.10;;;;;;;17.88;77.72;100446.22;4984413;28;20063;-84
2022/09/06 09:22:54;;;;;;;4.75;1.40;;;;;;;17.96;79.53;100589.13;4975665;28;20042;-85
2022/09/06 09:25:23;;;;;;;;;;;;;;;17.84;80.95;100625.91;4956185;28;20392;-86
2022/09/06 09:27:56;;;;;;;2.65;1.23;;;;;;;18.52;80.43;100828.97;4979899;28;19918;-84
2022/09/06 09:30:43;;;;;;;2.60;1.20;;;;;;;18.65;78.44;100719.09;4985671;28;20130;-83
2022/09/06 09:33:37;;;;;;;4.10;1.35;;;;;;;18.43;80.65;100805.09;4981071;28;20046;-84
2022/09/06 09:36:11;;;;;;;7.22;1.38;;;;;;;18.33;76.85;100556.88;4976660;28;20105;-85
2022/09/06 09:38:43;;;;;;;2.25;1.30;;;;;;;18.71;75.46;100599.28;4969484;28;20395;-85
2022/09/06 09:41:22;;;;;;;4.90;1.38;;;;;;;19.04;72.21;100509.72;4976285;28;20038;-85
2022/09/06 09:44:08;;;;;;;4.22;1.63;;;;;;;19.23;69.53;100333.84;4979360;28;20652;-84
2022/09/06 09:46:36;;;;;;;7.65;1.10;;;;;;;19.99;69.86;100611.34;4983326;28;20046;-84
2022/09/06 09:49:11;;;;;;;2.75;1.30;;;;;;;19.20;66.95;100061.84;4975739;28;20031;-84
2022/09/06 09:51:42;;;;;;;3.72;1.30;;;;;;;19.33;68.85;100359.28;4980419;28;20142;-85
2022/09/06 09:54:10;;;;;;;5.40;1.38;;;;;;;20.22;67.54;100522.00;4968605;28;20034;-86
2022/09/06 09:56:51;;;;;;;2.80;1.17;;;;;;;20.33;66.26;100384.03;4979616;28;20105;-86
2022/09/06 09:59:45;;;;;;;2.22;1.25;;;;;;;20.07;64.57;100180.19;4987277;28;20038;-84
2022/09/06 10:02:24;;;;;;;5.68;1.05;;;;;;;20.26;65.41;100361.63;4970699;28;20039;-85
2022/09/06 10:04:52;;;;;;;1.63;0.90;;;;;;;20.71;63.49;100309.50;4967570;28;20039;-84
2022/09/06 10:07:24;;;;;;;2.60;1.33;;;;;;;20.28;62.25;100077.63;4975269;28;20495;-85
2022/09/06 10:10:03;;;;;;;1.48;1.05;;;;;;;20.13;63.08;100126.91;4965052;28;20030;-84
2022/09/06 10:12:31;;;;;;;2.72;1.48;;;;;;;19.70;62.36;99912.38;4975127;28;20050;-84
2022/09/06 10:14:57;;;;;;;3.63;0.93;;;;;;;19.84;63.12;100147.72;4974523;28;20391;-83
2022/09/06 10:17:51;;;;;;;5.05;1.73;;;;;;;20.98;60.85;100259.03;4967496;28;20038;-83
2022/09/06 10:20:17;;;;;;;2.90;1.40;;;;;;;20.69;60.91;100162.44;4975258;28;20048;-85
2022/09/06 10:23:05;;;;;;;3.50;1.23;;;;;;;20.53;61.24;100153.97;4978772;28;20035;-84
2022/09/06 10:25:58;;;;;;;3.33;1.00;;;;;;;19.64;60.46;99740.03;4983786;28;20050;-84
2022/09/06 10:28:44;;;;;;;3.92;1.00;;;;;;;20.19;62.07;100210.78;4975565;28;20046;-85
2022/09/06 10:31:44;;;;;;;1.73;0.90;;;;;;;21.03;60.35;100307.97;4967774;28;20055;-84
2022/09/06 10:34:51;;;;;;;12.75;2.67;;;;;;;20.46;60.08;100017.75;4978190;28;20511;-85
2022/09/06 10:37:36;;;;;;;3.08;1.08;;;;;;;20.33;59.71;99966.56;4967338;28;20102;-84
2022/09/06 10:40:07;;;;;;;5.55;1.10;;;;;;;20.20;60.56;100076.09;4979087;28;20023;-84
2022/09/06 10:42:46;;;;;;;4.68;1.35;;;;;;;20.16;59.66;99945.69;4968805;28;20114;-85
2022/09/06 10:45:35;;;;;;;4.50;1.40;;;;;;;20.68;58.35;99987.22;4982205;28;20039;-85
2022/09/06 10:48:10;;;;;;;2.85;1.00;;;;;;;20.28;58.25;99806.59;4964072;28;20034;-85
2022/09/06 10:50:50;;;;;;;4.30;1.00;;;;;;;20.51;58.28;99928.38;4978849;28;20053;-85
2022/09/06 10:53:44;;;;;;;2.38;1.00;;;;;;;20.74;57.17;99889.38;4976787;28;20463;-85
2022/09/06 10:56:21;;;;;;;8.80;1.23;;;;;;;20.51;57.70;99848.91;4968689;28;20121;-85
2022/09/06 10:59:01;;;;;;;4.15;2.13;;;;;;;20.12;58.10;99792.00;4970439;28;20034;-85
2022/09/06 11:01:34;;;;;;;3.17;0.95;;;;;;;20.04;58.72;99820.31;4986370;28;20165;-84
2022/09/06 11:04:03;;;;;;;4.07;1.40;;;;;;;20.07;58.63;99886.75;4975368;28;20087;-85
2022/09/06 11:06:34;;;;;;;4.90;1.25;;;;;;;20.81;58.30;100146.91;4968154;28;20024;-85
2022/09/06 11:09:37;;;;;;;9.25;1.27;;;;;;;21.22;55.90;99949.47;4971176;28;20039;-85
2022/09/06 11:12:15;;;;;;;1.75;0.70;;;;;;;21.20;56.39;99976.03;4972185;28;20043;-84
2022/09/06 11:14:40;;;;;;;4.53;1.30;;;;;;;20.74;56.78;99866.88;4986497;28;20054;-85
2022/09/06 11:17:16;;;;;;;6.47;1.07;;;;;;;20.34;55.60;99546.19;4969709;28;20576;-83
2022/09/06 11:20:00;;;;;;;3.47;1.20;;;;;;;20.36;57.54;99873.91;4977993;28;20058;-84
2022/09/06 11:22:45;;;;;;;2.10;0.80;;;;;;;20.34;57.74;99916.69;4969523;28;20030;-84
2022/09/06 11:25:22;;;;;;;4.53;1.10;;;;;;;21.33;56.05;100061.69;4977953;28;20074;-84
2022/09/06 11:27:55;;;;;;;2.83;1.00;;;;;;;21.32;54.32;99849.13;4985999;28;20043;-85
2022/09/06 11:30:21;;;;;;;5.45;1.10;;;;;;;22.04;54.10;100078.13;4985400;28;20110;-85
2022/09/06 11:32:59;;;;;;;;;;;;;;;21.69;53.20;99753.38;4982611;28;20026;-85
2022/09/06 11:35:27;;;;;;;3.50;1.15;;;;;;;21.64;55.34;100093.66;4973882;28;19918;-85